Airborne Airpark
KILN : now visible

Airfield :











YOU CAN JOIN US ON...

 
LOGIN :

Register | Disclaimer

   EN    FR    IT 

 









Legend :    VFR   Marginal VFR   IFR   Intensive IFR   Very Intensive IFR
Visi :
Ceiling :
>= 8 km
>= 3000ft
5 to 8 km
1000 to 3000 ft
1500m to 5 km
500 to 1000 ft
800 to 1500m
200 to 500 ft
< 800m
< 200 ft
Symbols :   Thunderstorms  Fog  Heavy snow  Heavy precipitations  Wind > 20 kt






- Airport Elevation : 1077 ft


KILN - Airborne Airpark

CURRENT METAR :
  • 071454Z AUTO 23009KT 10SM BKN044 BKN055 27/23 A3020 RMK AO2 SLP215 T02720228 53005

EXPIRED METARs :
  • 071354Z AUTO 24008KT 10SM FEW037 25/22 A3020 RMK AO2 SLP215 T02500217
  • 071254Z AUTO 21005KT 10SM CLR 24/21 A3019 RMK AO2 SLP213 T02390206

TAF KILN
Valid from the 07 at 12:00 until the 08 at 12:00 UTC


071131Z 0712/0812 21004KT P6SM SCT090
FM071500 22008KT P6SM SCT035
FM071700 22008KT P6SM VCSH SCT040
FM072300 21006KT P6SM SCT250
FM080900 21005KT 4SM BR SCT250
KZID FIR / North America



MET'MAP, your aeronautical weather chart ! - Copyright ORBIFLY December 2007 - Disclaimer

ORBIFLY MET'MAP TEAM :

Programming & Development : Alexandra Zaïnal
Original concept : Baudouin d'Aumeries
Technical & hardware support : Manuel Goepfert
Assistance : Marc-Olivier Méhu




SOURCES & CREDITS :

   NOAA       Earth
Advisory